Time;durP1;ratioP1;P1;durP2;ratioP2;P2;SDS_P1;SDS_P2;PMS_P1;PMS_P2;Temp;Humidity;BMP_temperature;BMP_pressure;BME280_temperature;BME280_humidity;BME280_pressure;Samples;Min_cycle;Max_cycle;Signal;HPM_P1;HPM_P2
2022/11/09 00:00:55;;;;;;;15.98;9.77;;;21.20;51.80;;;;;;5028777;28;20124;-61
2022/11/09 00:03:22;;;;;;;14.57;9.65;;;21.20;51.70;;;;;;5032233;28;20055;-61
2022/11/09 00:05:57;;;;;;;14.02;9.45;;;21.20;51.70;;;;;;5032367;28;20056;-62
2022/11/09 00:08:24;;;;;;;14.15;9.60;;;21.20;51.70;;;;;;5031224;28;20045;-62
2022/11/09 00:10:51;;;;;;;14.80;9.60;;;21.20;51.60;;;;;;5031329;28;20046;-61
2022/11/09 00:13:18;;;;;;;15.45;10.05;;;21.20;51.60;;;;;;5032805;28;20135;-61
2022/11/09 00:15:46;;;;;;;14.38;10.30;;;21.20;51.50;;;;;;5030952;28;20084;-61
2022/11/09 00:18:13;;;;;;;15.77;9.75;;;21.20;51.50;;;;;;5014996;28;20265;-61
2022/11/09 00:20:42;;;;;;;13.05;9.38;;;21.20;51.50;;;;;;5031438;28;20052;-61
2022/11/09 00:23:15;;;;;;;13.43;9.43;;;21.20;51.50;;;;;;5032211;28;20045;-61
2022/11/09 00:25:42;;;;;;;14.57;10.18;;;21.20;51.50;;;;;;5031777;28;20312;-61
2022/11/09 00:28:09;;;;;;;13.95;9.77;;;21.20;51.50;;;;;;5032328;28;20048;-61
2022/11/09 00:30:36;;;;;;;14.23;10.30;;;21.20;51.50;;;;;;5029576;28;20521;-61
2022/11/09 00:33:04;;;;;;;13.88;9.75;;;21.20;51.40;;;;;;5011684;28;20042;-61
2022/11/09 00:35:31;;;;;;;13.57;9.70;;;21.20;51.40;;;;;;5030842;28;20494;-61
2022/11/09 00:37:58;;;;;;;13.88;9.95;;;21.20;51.40;;;;;;5031678;28;20125;-61
2022/11/09 00:40:25;;;;;;;15.88;10.25;;;21.20;51.40;;;;;;5031986;28;20045;-61
2022/11/09 00:42:52;;;;;;;14.25;9.70;;;21.20;51.40;;;;;;5031116;28;20049;-61
2022/11/09 00:45:19;;;;;;;12.65;8.88;;;21.30;51.50;;;;;;5030853;28;20080;-61
2022/11/09 00:47:46;;;;;;;13.60;9.57;;;21.10;51.50;;;;;;5014113;28;20046;-61
2022/11/09 00:50:13;;;;;;;12.60;8.88;;;21.20;51.50;;;;;;5031164;28;20434;-61
2022/11/09 00:52:41;;;;;;;13.15;8.88;;;21.20;51.60;;;;;;5015976;28;20129;-61
2022/11/09 00:55:08;;;;;;;14.88;9.88;;;21.10;51.50;;;;;;5011092;28;20423;-61
2022/11/09 00:57:35;;;;;;;13.35;9.38;;;21.10;51.50;;;;;;5011058;28;20046;-61
2022/11/09 01:00:03;;;;;;;14.98;9.73;;;21.10;51.50;;;;;;4993672;28;20133;-61
2022/11/09 01:02:30;;;;;;;14.52;9.65;;;21.20;51.60;;;;;;4992191;28;20081;-61
2022/11/09 01:04:58;;;;;;;13.15;9.98;;;21.20;51.60;;;;;;5008551;28;20057;-62
2022/11/09 01:07:26;;;;;;;13.30;8.77;;;21.20;51.50;;;;;;4994305;28;20046;-61
2022/11/09 01:09:53;;;;;;;13.27;9.77;;;21.20;51.50;;;;;;5011576;28;20113;-58
2022/11/09 01:12:20;;;;;;;13.88;9.80;;;21.20;51.40;;;;;;5010485;28;20065;-62
2022/11/09 01:14:47;;;;;;;12.35;9.23;;;21.20;51.40;;;;;;5010928;28;20104;-62
2022/11/09 01:17:14;;;;;;;12.55;8.88;;;21.20;51.40;;;;;;5011931;28;20052;-61
2022/11/09 01:19:41;;;;;;;12.93;9.27;;;21.20;51.30;;;;;;5011661;28;20566;-61
2022/11/09 01:22:08;;;;;;;13.07;10.13;;;21.20;51.30;;;;;;5010981;28;20141;-61
2022/11/09 01:24:35;;;;;;;11.52;8.52;;;21.20;51.30;;;;;;5011488;28;20081;-61
2022/11/09 01:27:02;;;;;;;12.85;8.77;;;21.20;51.30;;;;;;5010546;28;20244;-62
2022/11/09 01:29:29;;;;;;;13.00;9.02;;;21.20;51.30;;;;;;5010530;28;20109;-60
2022/11/09 01:31:56;;;;;;;15.18;9.40;;;21.20;51.30;;;;;;5011143;28;20079;-61
2022/11/09 01:34:24;;;;;;;11.85;8.50;;;21.20;51.30;;;;;;5010394;28;20431;-61
2022/11/09 01:36:51;;;;;;;14.77;10.10;;;21.20;51.30;;;;;;5006147;28;20049;-61
2022/11/09 01:39:18;;;;;;;11.32;8.80;;;21.20;51.30;;;;;;5010471;28;20056;-61
2022/11/09 01:41:46;;;;;;;12.38;8.73;;;21.20;51.30;;;;;;5010112;28;20126;-62
2022/11/09 01:44:18;;;;;;;12.25;9.25;;;21.20;51.30;;;;;;5011230;28;20140;-61
2022/11/09 01:47:03;;;;;;;11.88;8.65;;;21.20;51.30;;;;;;5009696;28;20053;-61
2022/11/09 01:49:42;;;;;;;11.52;9.15;;;21.20;51.30;;;;;;5010408;28;20057;-61
2022/11/09 01:52:21;;;;;;;14.98;10.32;;;21.20;51.30;;;;;;5010902;28;20572;-61
2022/11/09 01:54:54;;;;;;;13.55;9.25;;;21.20;51.30;;;;;;5010873;28;20495;-59
2022/11/09 01:57:28;;;;;;;11.98;9.02;;;21.20;51.20;;;;;;5011620;28;20056;-61
2022/11/09 01:59:59;;;;;;;15.02;8.95;;;21.20;51.20;;;;;;5010107;28;20325;-61
2022/11/09 02:02:27;;;;;;;12.10;8.43;;;21.20;51.20;;;;;;5011496;28;20052;-61
2022/11/09 02:04:57;;;;;;;12.20;8.40;;;21.20;51.30;;;;;;5010268;28;20137;-61
2022/11/09 02:07:24;;;;;;;12.07;9.07;;;21.20;51.20;;;;;;5017970;28;20502;-62
2022/11/09 02:10:02;;;;;;;12.75;8.93;;;21.20;51.20;;;;;;5026200;28;20049;-62
2022/11/09 02:12:32;;;;;;;12.00;8.32;;;21.20;51.30;;;;;;5030526;28;20050;-58
2022/11/09 02:15:02;;;;;;;10.88;8.45;;;21.10;51.20;;;;;;5030138;28;20132;-61
2022/11/09 02:17:29;;;;;;;14.70;8.95;;;21.10;51.30;;;;;;5030054;28;20045;-61
2022/11/09 02:19:57;;;;;;;12.40;8.77;;;21.10;51.30;;;;;;5030502;28;20045;-62
2022/11/09 02:22:25;;;;;;;12.07;8.68;;;21.10;51.30;;;;;;5030005;28;20212;-62
2022/11/09 02:24:52;;;;;;;13.43;9.82;;;21.10;51.40;;;;;;5000235;28;20079;-61
2022/11/09 02:27:23;;;;;;;12.45;8.45;;;21.10;51.40;;;;;;5033907;28;20095;-61
2022/11/09 02:29:50;;;;;;;11.95;8.38;;;21.10;51.40;;;;;;5033486;28;20080;-61
2022/11/09 02:32:24;;;;;;;13.82;9.02;;;21.10;51.40;;;;;;5033776;28;20045;-61
2022/11/09 02:34:51;;;;;;;12.40;8.52;;;21.10;51.40;;;;;;5033697;28;20064;-61
2022/11/09 02:37:39;;;;;;;12.23;8.95;;;21.10;51.30;;;;;;5033911;28;20049;-62
2022/11/09 02:40:12;;;;;;;13.13;9.25;;;21.10;51.20;;;;;;5032738;28;20358;-61
2022/11/09 02:42:39;;;;;;;10.60;7.90;;;21.10;51.20;;;;;;5031930;28;20060;-61
2022/11/09 02:45:07;;;;;;;11.23;8.13;;;21.10;51.20;;;;;;5034142;28;20140;-62
2022/11/09 02:47:34;;;;;;;10.55;8.18;;;21.10;51.20;;;;;;5033317;28;20168;-61
2022/11/09 02:50:02;;;;;;;10.45;8.35;;;21.10;51.10;;;;;;5033083;28;20140;-61
2022/11/09 02:52:29;;;;;;;12.90;8.68;;;21.10;51.10;;;;;;5023930;28;20049;-61
2022/11/09 02:54:56;;;;;;;12.45;8.98;;;21.10;51.10;;;;;;5012889;28;20053;-61
2022/11/09 02:57:23;;;;;;;11.88;8.43;;;21.10;51.10;;;;;;5013531;28;20042;-62
2022/11/09 02:59:50;;;;;;;11.35;8.20;;;21.10;51.10;;;;;;5013012;28;20053;-61
2022/11/09 03:02:17;;;;;;;10.88;8.32;;;21.10;51.10;;;;;;5013652;28;20045;-61
2022/11/09 03:04:44;;;;;;;11.00;7.90;;;21.10;51.70;;;;;;5012994;28;20140;-61
2022/11/09 03:07:11;;;;;;;13.00;8.43;;;21.10;51.10;;;;;;5013617;28;20044;-61
2022/11/09 03:09:38;;;;;;;11.10;8.00;;;21.10;51.20;;;;;;5013384;28;20054;-62
2022/11/09 03:14:53;;;;;;;10.27;7.50;;;21.10;51.20;;;;;;5009109;28;20092;-61
2022/11/09 03:17:20;;;;;;;10.45;8.35;;;21.10;51.20;;;;;;5013345;28;20244;-61
2022/11/09 03:19:47;;;;;;;12.00;8.55;;;21.10;51.20;;;;;;5013414;28;20081;-61
2022/11/09 03:22:14;;;;;;;10.90;8.07;;;21.10;51.20;;;;;;4995356;28;20054;-61
2022/11/09 03:24:41;;;;;;;10.05;8.07;;;21.10;51.80;;;;;;5013595;28;20402;-61
2022/11/09 03:27:09;;;;;;;10.07;7.78;;;21.10;51.20;;;;;;5013306;28;20137;-62
2022/11/09 03:29:36;;;;;;;11.55;8.20;;;21.10;51.20;;;;;;5012796;28;20052;-61
2022/11/09 03:32:04;;;;;;;10.43;7.88;;;21.10;51.20;;;;;;5012445;28;20048;-61
2022/11/09 03:34:31;;;;;;;10.63;7.95;;;21.10;51.20;;;;;;5012928;28;20202;-61
2022/11/09 03:36:58;;;;;;;10.00;7.85;;;21.10;51.20;;;;;;5015611;28;20140;-61
2022/11/09 03:39:25;;;;;;;10.23;7.82;;;21.10;51.20;;;;;;5032661;28;20056;-61
2022/11/09 03:41:52;;;;;;;11.73;8.18;;;21.10;51.20;;;;;;5033538;28;20121;-61
2022/11/09 03:44:19;;;;;;;10.27;7.95;;;21.10;51.20;;;;;;5030184;28;20491;-61
2022/11/09 03:46:47;;;;;;;11.43;8.20;;;21.00;51.20;;;;;;5029801;28;20501;-61
2022/11/09 03:49:14;;;;;;;10.80;8.05;;;21.00;51.20;;;;;;5031329;28;20046;-61
2022/11/09 03:51:41;;;;;;;11.75;8.95;;;21.00;51.20;;;;;;5033220;28;20049;-61
2022/11/09 03:54:08;;;;;;;10.90;7.78;;;21.00;51.20;;;;;;5032807;28;20049;-62
2022/11/09 03:56:35;;;;;;;9.93;7.80;;;21.00;51.20;;;;;;5033506;28;20045;-62
2022/11/09 03:59:02;;;;;;;11.15;7.85;;;21.00;51.30;;;;;;5028245;28;20041;-62
2022/11/09 04:01:29;;;;;;;9.77;7.55;;;21.00;51.30;;;;;;5020143;28;20056;-62
2022/11/09 04:03:56;;;;;;;9.85;7.60;;;21.00;51.30;;;;;;5032984;28;20090;-58
2022/11/09 04:06:23;;;;;;;11.05;8.15;;;21.00;51.20;;;;;;5014061;28;20076;-61
2022/11/09 04:08:50;;;;;;;10.43;7.88;;;21.00;51.20;;;;;;5031898;28;20057;-62
2022/11/09 04:11:18;;;;;;;11.57;8.27;;;21.00;51.10;;;;;;5014539;28;20050;-62
2022/11/09 04:13:46;;;;;;;10.77;8.05;;;21.00;51.10;;;;;;5032186;28;20045;-61
2022/11/09 04:16:13;;;;;;;13.38;8.35;;;21.00;51.10;;;;;;5029842;28;20081;-61
2022/11/09 04:18:40;;;;;;;11.20;7.93;;;21.00;51.10;;;;;;5028838;28;20041;-61
2022/11/09 04:21:07;;;;;;;10.10;8.13;;;21.00;51.10;;;;;;5032684;28;20629;-61
2022/11/09 04:23:34;;;;;;;10.25;7.82;;;21.00;51.10;;;;;;5032476;28;20046;-61
2022/11/09 04:26:01;;;;;;;9.48;7.45;;;21.00;51.00;;;;;;5031696;28;20057;-61
2022/11/09 04:28:29;;;;;;;9.98;6.82;;;21.00;51.10;;;;;;5032194;28;20484;-61
2022/11/09 04:30:59;;;;;;;9.55;6.80;;;21.00;51.10;;;;;;5031979;28;20049;-62
2022/11/09 04:33:27;;;;;;;10.43;7.78;;;21.00;51.10;;;;;;5031539;28;20483;-62
2022/11/09 04:35:54;;;;;;;12.82;8.10;;;21.00;51.10;;;;;;5025869;28;20042;-61
2022/11/09 04:38:21;;;;;;;8.88;7.53;;;21.00;51.10;;;;;;5011648;28;20045;-61
2022/11/09 04:40:48;;;;;;;9.30;7.10;;;21.00;51.10;;;;;;5012245;28;20076;-61
2022/11/09 04:43:16;;;;;;;9.23;7.25;;;21.00;51.10;;;;;;5011979;28;20137;-61
2022/11/09 04:45:44;;;;;;;11.30;8.25;;;21.00;51.10;;;;;;5017514;28;20081;-62
2022/11/09 04:48:11;;;;;;;9.38;7.22;;;21.00;51.10;;;;;;5029754;28;20045;-59
2022/11/09 04:50:38;;;;;;;10.65;7.47;;;21.00;51.10;;;;;;5028316;28;20489;-61
2022/11/09 04:53:08;;;;;;;8.88;6.90;;;21.00;51.10;;;;;;5030995;28;20427;-59
2022/11/09 04:55:35;;;;;;;11.35;7.78;;;21.00;51.10;;;;;;5030233;28;20053;-61
2022/11/09 04:58:03;;;;;;;10.13;7.50;;;21.00;51.10;;;;;;5030985;28;20060;-61
2022/11/09 05:00:30;;;;;;;10.93;7.53;;;21.00;51.10;;;;;;5032216;28;20316;-58
2022/11/09 05:03:05;;;;;;;11.38;7.38;;;21.00;51.10;;;;;;5031635;28;20471;-61
2022/11/09 05:05:34;;;;;;;8.80;6.88;;;21.00;51.10;;;;;;5031799;28;20060;-61
2022/11/09 05:08:02;;;;;;;9.85;7.50;;;20.90;51.10;;;;;;5030958;28;20136;-61
2022/11/09 05:10:30;;;;;;;8.93;7.00;;;20.90;51.10;;;;;;5032036;28;20156;-61
2022/11/09 05:13:03;;;;;;;11.07;7.32;;;20.90;51.10;;;;;;4997833;28;20305;-61
2022/11/09 05:15:30;;;;;;;10.63;6.95;;;20.90;51.10;;;;;;5030070;28;20152;-61
2022/11/09 05:17:58;;;;;;;8.88;7.07;;;20.90;51.10;;;;;;5030783;28;20045;-58
2022/11/09 05:20:25;;;;;;;9.35;7.28;;;20.90;51.20;;;;;;5027835;28;20053;-61
2022/11/09 05:25:39;;;;;;;9.70;7.00;;;20.90;51.20;;;;;;5029995;28;20049;-61
2022/11/09 05:28:06;;;;;;;10.10;7.35;;;20.90;51.20;;;;;;5028442;28;20045;-61
2022/11/09 05:30:35;;;;;;;8.13;6.68;;;20.90;51.20;;;;;;5023374;28;20056;-61
2022/11/09 05:33:03;;;;;;;10.35;6.82;;;20.90;51.20;;;;;;5017712;28;20060;-58
2022/11/09 05:35:31;;;;;;;10.50;7.45;;;20.90;51.20;;;;;;5015448;28;20050;-61
2022/11/09 05:37:58;;;;;;;9.95;7.78;;;20.90;51.00;;;;;;4992833;28;20065;-61
2022/11/09 05:40:25;;;;;;;12.35;8.23;;;20.90;50.70;;;;;;5013351;28;20110;-61
2022/11/09 05:42:52;;;;;;;10.63;7.60;;;20.90;50.50;;;;;;5021976;28;20049;-61
2022/11/09 05:45:20;;;;;;;10.45;7.78;;;20.90;50.40;;;;;;5026941;28;20061;-61
2022/11/09 05:48:07;;;;;;;12.02;8.10;;;20.90;50.30;;;;;;5014085;28;20045;-61
2022/11/09 05:50:34;;;;;;;9.52;7.55;;;20.90;50.20;;;;;;5030434;28;20132;-61
2022/11/09 05:53:01;;;;;;;9.77;7.55;;;20.90;50.20;;;;;;5011856;28;20125;-61
2022/11/09 05:55:29;;;;;;;9.02;7.05;;;20.90;50.20;;;;;;5024734;28;20132;-61
2022/11/09 05:57:56;;;;;;;12.85;8.60;;;20.90;50.20;;;;;;5021310;28;20041;-58
2022/11/09 06:00:23;;;;;;;12.18;8.38;;;20.90;50.30;;;;;;5031303;28;20045;-59
2022/11/09 06:02:50;;;;;;;14.75;8.68;;;20.90;50.20;;;;;;5027268;28;20042;-58
2022/11/09 06:08:55;;;;;;;13.23;8.43;;;20.80;50.10;;;;;;5026537;28;20446;-58
2022/11/09 06:11:22;;;;;;;12.93;9.00;;;20.80;50.10;;;;;;5033632;28;20045;-60
2022/11/09 06:13:51;;;;;;;12.98;8.95;;;20.80;50.00;;;;;;5030386;28;20046;-60
2022/11/09 06:16:19;;;;;;;13.27;8.93;;;20.80;50.00;;;;;;5031839;28;20525;-60
2022/11/09 06:18:46;;;;;;;13.13;9.07;;;20.80;50.00;;;;;;5026982;28;20053;-60
2022/11/09 06:21:13;;;;;;;13.57;9.30;;;20.80;50.10;;;;;;5023867;28;20383;-60
2022/11/09 06:23:40;;;;;;;14.40;9.43;;;20.80;50.20;;;;;;5022666;28;20046;-57
2022/11/09 06:26:10;;;;;;;12.55;9.15;;;20.80;50.30;;;;;;5016494;28;20085;-57
2022/11/09 06:28:39;;;;;;;16.42;10.85;;;20.90;50.50;;;;;;5023810;28;20046;-58
2022/11/09 06:31:10;;;;;;;12.77;8.80;;;20.80;50.40;;;;;;5020296;28;20046;-58
2022/11/09 06:33:38;;;;;;;14.30;9.88;;;20.90;50.50;;;;;;5022087;28;20049;-58
2022/11/09 06:36:06;;;;;;;14.18;9.35;;;20.90;50.40;;;;;;5022238;28;20064;-61
2022/11/09 06:38:33;;;;;;;14.65;9.85;;;20.90;50.40;;;;;;5015834;28;20169;-61
2022/11/09 06:41:00;;;;;;;15.32;9.88;;;20.90;50.40;;;;;;5016269;28;20247;-61
2022/11/09 06:43:28;;;;;;;14.18;9.45;;;20.90;50.40;;;;;;5020510;28;20048;-61
2022/11/09 06:45:56;;;;;;;13.13;9.55;;;20.90;50.30;;;;;;5015320;28;20046;-61
2022/11/09 06:48:24;;;;;;;17.13;11.23;;;21.00;50.30;;;;;;5015760;28;20046;-61
2022/11/09 06:50:51;;;;;;;17.75;10.82;;;21.00;50.30;;;;;;5017200;28;20084;-62
2022/11/09 06:53:18;;;;;;;15.25;11.15;;;21.00;50.10;;;;;;5020527;28;20046;-62
2022/11/09 06:55:47;;;;;;;15.68;10.95;;;21.00;50.00;;;;;;5019779;28;20416;-62
2022/11/09 06:58:18;;;;;;;15.43;10.85;;;21.10;50.00;;;;;;5011635;28;20053;-62
2022/11/09 07:00:45;;;;;;;16.65;10.95;;;21.10;50.00;;;;;;5016307;28;20048;-62
2022/11/09 07:03:14;;;;;;;15.52;10.95;;;21.10;50.00;;;;;;5024296;28;20060;-62
2022/11/09 07:05:42;;;;;;;18.08;11.77;;;21.10;50.10;;;;;;5022936;28;20053;-60
2022/11/09 07:08:10;;;;;;;17.65;11.52;;;21.20;50.40;;;;;;5019955;28;20053;-61
2022/11/09 07:10:37;;;;;;;16.92;11.35;;;21.20;50.50;;;;;;5017750;28;20086;-61
2022/11/09 07:13:05;;;;;;;17.75;11.50;;;21.30;50.60;;;;;;5018381;28;20442;-60
2022/11/09 07:15:34;;;;;;;16.98;11.57;;;21.30;50.70;;;;;;5001517;28;20057;-61
2022/11/09 07:18:04;;;;;;;16.27;11.98;;;21.40;50.60;;;;;;5019792;28;20045;-62
2022/11/09 07:20:33;;;;;;;18.08;11.70;;;21.40;50.70;;;;;;5015957;28;20427;-61
2022/11/09 07:23:00;;;;;;;17.40;11.55;;;21.50;51.00;;;;;;5010383;28;20140;-61
2022/11/09 07:25:27;;;;;;;16.45;11.45;;;21.50;51.00;;;;;;5023405;28;20051;-60
2022/11/09 07:27:54;;;;;;;17.50;12.15;;;21.60;50.90;;;;;;5017904;28;20045;-62
2022/11/09 07:30:21;;;;;;;17.63;11.55;;;21.60;50.80;;;;;;5013526;28;20064;-62
2022/11/09 07:32:49;;;;;;;17.40;11.50;;;21.70;51.40;;;;;;5011282;28;20054;-62
2022/11/09 07:35:36;;;;;;;17.10;12.38;;;21.70;50.80;;;;;;5018714;28;20064;-62
2022/11/09 07:38:04;;;;;;;21.17;12.73;;;21.70;50.80;;;;;;5018123;28;20460;-62
2022/11/09 07:40:32;;;;;;;17.02;11.82;;;21.80;50.80;;;;;;5019124;28;20144;-61
2022/11/09 07:43:01;;;;;;;17.85;12.38;;;21.80;50.70;;;;;;5017709;28;20073;-61
2022/11/09 07:45:29;;;;;;;23.40;13.02;;;21.80;50.50;;;;;;5019053;28;20128;-60
2022/11/09 07:47:57;;;;;;;18.95;11.65;;;21.90;50.50;;;;;;5019810;28;20057;-61
2022/11/09 07:50:25;;;;;;;17.45;11.77;;;21.90;50.40;;;;;;5018913;28;20404;-61
2022/11/09 07:52:55;;;;;;;18.55;11.82;;;22.00;50.40;;;;;;5015554;28;20052;-62
2022/11/09 07:55:23;;;;;;;18.85;12.00;;;22.00;50.30;;;;;;5015943;28;20136;-61
2022/11/09 07:58:00;;;;;;;17.63;11.93;;;22.00;50.10;;;;;;5010209;28;20049;-61
2022/11/09 08:00:29;;;;;;;17.88;12.32;;;22.00;50.00;;;;;;5017630;28;20045;-61
2022/11/09 08:02:56;;;;;;;16.45;11.23;;;22.10;50.00;;;;;;5006226;28;20052;-62
2022/11/09 08:05:23;;;;;;;16.75;11.18;;;22.10;49.90;;;;;;5012473;28;20049;-61
2022/11/09 08:07:56;;;;;;;18.00;11.23;;;22.10;50.00;;;;;;5021441;28;20145;-62
2022/11/09 08:10:25;;;;;;;13.93;10.43;;;22.10;49.70;;;;;;5015716;28;20489;-62
2022/11/09 08:12:57;;;;;;;16.70;10.82;;;22.20;49.60;;;;;;5015008;28;20053;-62
2022/11/09 08:15:25;;;;;;;16.27;9.38;;;22.20;49.40;;;;;;5015493;28;20183;-61
2022/11/09 08:17:53;;;;;;;14.52;9.93;;;22.20;49.10;;;;;;5018176;28;20410;-62
2022/11/09 08:22:47;;;;;;;14.63;9.70;;;22.30;49.20;;;;;;5016942;28;20076;-61
2022/11/09 08:25:15;;;;;;;13.55;9.30;;;22.30;49.30;;;;;;5022646;28;20053;-61
2022/11/09 08:27:42;;;;;;;12.05;9.25;;;22.30;49.30;;;;;;5017699;28;20466;-61
2022/11/09 08:30:13;;;;;;;12.10;8.77;;;22.40;49.40;;;;;;5017903;28;20053;-62
2022/11/09 08:32:42;;;;;;;15.02;8.82;;;22.40;49.40;;;;;;5016847;28;20455;-62
2022/11/09 08:35:11;;;;;;;14.93;8.85;;;22.40;49.40;;;;;;5016041;28;20061;-62
2022/11/09 08:37:38;;;;;;;11.88;8.60;;;22.40;49.40;;;;;;5014069;28;20414;-61
2022/11/09 08:40:06;;;;;;;12.02;8.98;;;22.50;49.40;;;;;;5014932;28;20237;-61
2022/11/09 08:42:33;;;;;;;11.32;7.88;;;22.50;49.40;;;;;;5011457;28;20057;-61
2022/11/09 08:45:00;;;;;;;10.98;7.95;;;22.50;49.20;;;;;;5019165;28;20037;-61
2022/11/09 08:47:28;;;;;;;11.90;8.32;;;22.50;49.10;;;;;;5019826;28;20060;-62
2022/11/09 08:49:55;;;;;;;12.20;7.63;;;22.60;49.10;;;;;;5010707;28;20054;-62
2022/11/09 08:52:23;;;;;;;12.20;8.45;;;22.60;49.00;;;;;;5017552;28;20159;-62
2022/11/09 08:54:50;;;;;;;9.90;7.53;;;22.60;48.90;;;;;;5011656;28;20051;-61
2022/11/09 08:57:18;;;;;;;12.05;8.00;;;22.60;48.80;;;;;;5011817;28;20051;-61
2022/11/09 08:59:46;;;;;;;10.30;7.13;;;22.70;48.90;;;;;;5012218;28;20075;-62
2022/11/09 09:02:13;;;;;;;10.52;7.35;;;22.70;48.80;;;;;;5014574;28;20107;-62
2022/11/09 09:04:42;;;;;;;10.23;6.63;;;22.70;48.70;;;;;;5018617;28;20549;-62
2022/11/09 09:07:09;;;;;;;10.38;7.00;;;22.70;48.40;;;;;;5014457;28;20423;-61
2022/11/09 09:09:37;;;;;;;20.40;7.38;;;22.70;48.50;;;;;;5005983;28;20084;-62
2022/11/09 09:12:06;;;;;;;26.08;7.00;;;22.80;48.50;;;;;;5009207;28;20053;-61
2022/11/09 09:14:33;;;;;;;8.40;6.35;;;22.80;48.50;;;;;;5014869;28;20049;-61
2022/11/09 09:17:01;;;;;;;14.73;6.93;;;22.80;48.30;;;;;;5017250;28;20435;-62
2022/11/09 09:19:28;;;;;;;9.10;6.97;;;22.80;48.30;;;;;;4996805;28;20057;-61
2022/11/09 09:21:55;;;;;;;12.15;7.10;;;22.80;48.20;;;;;;5015248;28;20045;-62
2022/11/09 09:24:22;;;;;;;9.40;6.25;;;22.80;48.10;;;;;;5019035;28;20053;-62
2022/11/09 09:26:49;;;;;;;12.90;6.63;;;22.80;48.00;;;;;;5014551;28;20064;-62
2022/11/09 09:29:17;;;;;;;7.07;6.07;;;22.90;48.00;;;;;;4998939;28;20054;-62
2022/11/09 09:31:44;;;;;;;10.63;6.00;;;22.80;47.70;;;;;;5018343;28;20053;-63
2022/11/09 09:34:12;;;;;;;8.45;5.97;;;22.90;47.60;;;;;;5012581;28;20065;-63
2022/11/09 09:36:39;;;;;;;7.38;6.05;;;23.00;47.50;;;;;;5017925;28;22601;-63
2022/11/09 09:39:14;;;;;;;9.88;6.50;;;22.90;47.40;;;;;;5001294;28;20480;-62
2022/11/09 09:41:57;;;;;;;8.25;5.90;;;23.00;47.40;;;;;;5010973;28;20059;-61
2022/11/09 09:44:57;;;;;;;9.20;6.63;;;23.00;47.30;;;;;;5018340;28;20041;-62
2022/11/09 09:47:52;;;;;;;8.02;5.53;;;23.00;47.30;;;;;;5021656;28;20064;-63
2022/11/09 09:50:24;;;;;;;12.02;6.97;;;23.00;47.10;;;;;;5018400;28;20046;-63
2022/11/09 09:53:03;;;;;;;7.57;5.55;;;23.00;47.10;;;;;;5015455;28;20065;-63
2022/11/09 09:55:55;;;;;;;10.40;6.40;;;23.00;47.00;;;;;;5020467;28;20287;-62
2022/11/09 09:58:32;;;;;;;9.75;6.28;;;23.10;46.90;;;;;;5018399;28;20046;-62
2022/11/09 10:01:10;;;;;;;8.77;5.32;;;23.10;47.00;;;;;;5022757;28;20280;-62
2022/11/09 10:03:37;;;;;;;8.55;6.28;;;23.10;46.90;;;;;;5016893;28;20056;-61
2022/11/09 10:06:43;;;;;;;7.00;5.82;;;23.10;46.90;;;;;;5013831;28;20060;-61
2022/11/09 10:09:50;;;;;;;7.40;6.13;;;23.10;46.90;;;;;;5014993;28;20716;-61
2022/11/09 10:12:47;;;;;;;10.02;5.53;;;23.10;46.90;;;;;;5010651;28;20155;-61
2022/11/09 10:15:28;;;;;;;9.05;6.38;;;23.10;46.80;;;;;;5001379;28;20054;-62
2022/11/09 10:18:35;;;;;;;7.43;5.25;;;23.10;46.80;;;;;;5012435;28;20484;-62
2022/11/09 10:21:33;;;;;;;9.88;5.05;;;23.10;46.70;;;;;;5010864;28;20058;-62
2022/11/09 10:24:30;;;;;;;8.82;6.15;;;23.20;46.60;;;;;;4998064;28;20067;-62
2022/11/09 10:26:59;;;;;;;7.88;5.55;;;23.20;46.70;;;;;;4989285;28;20064;-63
2022/11/09 10:29:34;;;;;;;8.85;5.35;;;23.20;46.80;;;;;;5010028;28;20041;-63
2022/11/09 10:32:13;;;;;;;9.55;5.88;;;23.20;46.80;;;;;;5013853;28;20058;-64
2022/11/09 10:35:00;;;;;;;8.23;5.55;;;23.20;46.80;;;;;;5011966;28;20506;-64
2022/11/09 10:37:38;;;;;;;9.27;4.47;;;23.20;47.00;;;;;;5013566;28;20059;-62
2022/11/09 10:40:22;;;;;;;9.32;5.20;;;23.30;47.00;;;;;;5016118;28;21456;-62
2022/11/09 10:42:55;;;;;;;8.95;5.25;;;23.30;46.80;;;;;;5015304;28;20054;-62
2022/11/09 10:45:35;;;;;;;6.88;4.97;;;23.30;46.70;;;;;;5007749;28;20049;-63
2022/11/09 10:48:03;;;;;;;7.30;4.97;;;23.30;46.50;;;;;;5017392;28;20403;-62
2022/11/09 10:50:45;;;;;;;9.15;4.80;;;23.30;46.50;;;;;;5012965;28;20068;-62
2022/11/09 10:53:18;;;;;;;5.53;4.28;;;23.30;46.50;;;;;;4998921;28;20410;-62
2022/11/09 10:55:51;;;;;;;8.48;5.38;;;23.30;46.40;;;;;;5016513;28;20049;-63
2022/11/09 10:58:30;;;;;;;6.85;5.15;;;23.30;46.40;;;;;;5021727;28;20052;-62
2022/11/09 11:01:16;;;;;;;4.65;4.15;;;23.30;46.40;;;;;;5021172;28;20042;-60
2022/11/09 11:03:48;;;;;;;4.93;4.18;;;23.30;46.40;;;;;;5022463;28;20164;-61
2022/11/09 11:06:30;;;;;;;6.68;4.68;;;23.30;46.40;;;;;;5006174;28;20049;-61
2022/11/09 11:09:18;;;;;;;5.43;4.30;;;23.30;46.40;;;;;;5018983;28;20050;-62
2022/11/09 11:11:45;;;;;;;5.93;4.43;;;23.30;46.40;;;;;;5017666;28;20506;-62
2022/11/09 11:14:30;;;;;;;5.75;4.32;;;23.30;46.30;;;;;;5014897;28;20053;-62
2022/11/09 11:16:58;;;;;;;6.95;4.57;;;23.30;46.30;;;;;;5018003;28;20049;-62
2022/11/09 11:19:37;;;;;;;6.55;4.82;;;23.20;46.20;;;;;;5018134;28;20068;-61
2022/11/09 11:22:21;;;;;;;6.15;4.20;;;23.20;46.10;;;;;;5019626;28;20503;-62
2022/11/09 11:25:00;;;;;;;6.60;4.32;;;23.20;46.10;;;;;;5015443;28;20084;-62
2022/11/09 11:27:43;;;;;;;6.32;4.43;;;23.30;46.10;;;;;;5014530;28;20057;-63
2022/11/09 11:30:27;;;;;;;5.50;4.20;;;23.20;46.00;;;;;;5019179;28;20045;-62
2022/11/09 11:32:55;;;;;;;6.05;4.78;;;23.20;46.00;;;;;;5000308;28;20414;-63
2022/11/09 11:35:37;;;;;;;5.45;4.13;;;23.20;46.00;;;;;;5017371;28;20050;-64
2022/11/09 11:38:30;;;;;;;6.68;4.30;;;23.30;45.90;;;;;;5019270;28;21744;-62
2022/11/09 11:41:18;;;;;;;6.13;4.40;;;23.20;45.80;;;;;;5017660;28;20044;-62
2022/11/09 11:44:02;;;;;;;5.28;4.45;;;23.30;46.10;;;;;;5022251;28;20131;-61
2022/11/09 11:46:50;;;;;;;6.20;3.75;;;23.20;46.30;;;;;;5022023;28;20052;-61
2022/11/09 11:49:50;;;;;;;5.85;4.03;;;23.30;46.50;;;;;;5018803;28;20053;-61
2022/11/09 11:52:52;;;;;;;7.85;4.60;;;23.30;46.50;;;;;;5014254;28;20084;-62
2022/11/09 11:55:40;;;;;;;5.32;4.38;;;23.30;46.50;;;;;;5015522;28;20041;-62
2022/11/09 11:58:37;;;;;;;5.72;4.47;;;23.30;46.50;;;;;;5018974;28;20054;-62
2022/11/09 12:01:37;;;;;;;6.40;4.63;;;23.30;46.50;;;;;;5017269;28;20128;-62
2022/11/09 12:04:33;;;;;;;5.95;3.80;;;23.30;46.50;;;;;;5006104;28;20045;-61
2022/11/09 12:07:30;;;;;;;7.53;4.32;;;23.30;46.50;;;;;;4999251;28;20049;-61
2022/11/09 12:10:27;;;;;;;6.35;4.30;;;23.30;46.50;;;;;;5014824;28;20049;-61
2022/11/09 12:13:14;;;;;;;9.00;4.38;;;23.30;46.50;;;;;;5013518;28;21224;-61
2022/11/09 12:16:09;;;;;;;9.35;5.03;;;23.30;46.40;;;;;;5010114;28;20058;-61
2022/11/09 12:19:16;;;;;;;7.40;4.55;;;23.40;46.30;;;;;;4992751;28;20111;-60
2022/11/09 12:22:10;;;;;;;6.25;4.07;;;23.30;46.20;;;;;;4999019;28;20127;-61
2022/11/09 12:25:10;;;;;;;7.53;4.68;;;23.40;46.30;;;;;;5016842;28;20068;-60
2022/11/09 12:28:02;;;;;;;4.43;3.83;;;23.30;46.20;;;;;;5016384;28;20057;-61
2022/11/09 12:30:56;;;;;;;4.72;3.92;;;23.30;46.20;;;;;;5023508;28;20050;-61
2022/11/09 12:33:52;;;;;;;6.38;4.47;;;23.30;46.30;;;;;;5021257;28;20045;-61
2022/11/09 12:36:37;;;;;;;7.10;3.83;;;23.30;46.40;;;;;;5021589;28;20080;-60
2022/11/09 12:39:28;;;;;;;5.50;4.05;;;23.30;46.40;;;;;;5019000;28;20049;-62
2022/11/09 12:42:00;;;;;;;5.32;4.45;;;23.30;46.40;;;;;;5003403;28;20037;-62
2022/11/09 12:44:33;;;;;;;5.60;4.20;;;23.30;46.40;;;;;;5018693;28;20050;-62
2022/11/09 12:47:09;;;;;;;9.75;4.03;;;23.30;46.40;;;;;;5020366;28;20060;-62
2022/11/09 12:49:39;;;;;;;6.95;4.72;;;23.30;46.50;;;;;;5016400;28;20053;-62
2022/11/09 12:52:21;;;;;;;9.35;4.35;;;23.20;46.50;;;;;;5002218;28;20053;-61
2022/11/09 12:54:49;;;;;;;5.78;4.10;;;23.20;46.50;;;;;;5016784;28;20068;-61
2022/11/09 12:57:23;;;;;;;4.93;3.70;;;23.20;46.50;;;;;;5015844;28;20061;-61
2022/11/09 12:59:53;;;;;;;6.95;4.43;;;23.20;46.50;;;;;;5020877;28;20050;-62
2022/11/09 13:02:29;;;;;;;5.43;4.10;;;23.20;46.50;;;;;;5000381;28;20055;-62
2022/11/09 13:05:06;;;;;;;8.07;4.68;;;23.20;47.10;;;;;;5017979;28;20302;-62
2022/11/09 13:07:51;;;;;;;7.38;4.13;;;23.20;46.60;;;;;;5015925;28;20111;-58
2022/11/09 13:10:36;;;;;;;6.75;4.28;;;23.20;46.60;;;;;;5018471;28;21868;-58
2022/11/09 13:13:21;;;;;;;9.88;4.45;;;23.10;46.60;;;;;;5018386;28;20045;-59
2022/11/09 13:16:08;;;;;;;6.80;3.85;;;23.10;46.70;;;;;;5022325;28;20045;-58